THA106 VTBS-VTCC
Flight info
| Callsign | THA106 |
|---|---|
| Flight time | 1h 5m |
| Altitude | 36000 |
| Route | OLVUK1J OLVUK Y26 MARNI MARNI2B |
| Aircraft | A320/M-SDE3FGHIRWY/LB1 |
Departure
| Time | 2026-04-22 15:26 |
|---|---|
| Airport | Suvarnabhumi Airport (VTBS) |
Arrival
| Time | 2026-04-22 16:31 |
|---|---|
| Airport | Chiang Mai International Airport (VTCC) |
| Time | Latitude | Longitude | Altitude | Speed | Heading |
|---|---|---|---|---|---|
| 2026-04-22 15:16 | 13.69080 | 100.75609 | 13 ft | 0 kts | 194° |
| 2026-04-22 15:17 | 13.69089 | 100.75612 | 13 ft | 3 kts | 194° |
| 2026-04-22 15:18 | 13.69108 | 100.75617 | 14 ft | 3 kts | 194° |
| 2026-04-22 15:18 | 13.69128 | 100.75622 | 14 ft | 3 kts | 194° |
| 2026-04-22 15:18 | 13.69148 | 100.75627 | 14 ft | 3 kts | 194° |
| 2026-04-22 15:18 | 13.69167 | 100.75631 | 16 ft | 3 kts | 168° |
| 2026-04-22 15:19 | 13.69183 | 100.75623 | 14 ft | 3 kts | 155° |
| 2026-04-22 15:19 | 13.69200 | 100.75620 | 14 ft | 3 kts | 194° |
| 2026-04-22 15:19 | 13.69219 | 100.75625 | 16 ft | 3 kts | 194° |
| 2026-04-22 15:19 | 13.69238 | 100.75630 | 16 ft | 2 kts | 194° |
| 2026-04-22 15:20 | 13.69244 | 100.75632 | 16 ft | 0 kts | 194° |
| 2026-04-22 15:22 | 13.69219 | 100.75626 | 17 ft | 7 kts | 189° |
| 2026-04-22 15:22 | 13.69164 | 100.75647 | 17 ft | 10 kts | 130° |
| 2026-04-22 15:22 | 13.69141 | 100.75721 | 13 ft | 9 kts | 104° |
| 2026-04-22 15:23 | 13.69124 | 100.75792 | 13 ft | 11 kts | 104° |
| 2026-04-22 15:23 | 13.69102 | 100.75879 | 13 ft | 14 kts | 105° |
| 2026-04-22 15:23 | 13.69087 | 100.75940 | 13 ft | 4 kts | 104° |
| 2026-04-22 15:23 | 13.69085 | 100.75946 | 13 ft | 0 kts | 104° |
| 2026-04-22 15:24 | 13.69083 | 100.75955 | 13 ft | 4 kts | 104° |
| 2026-04-22 15:24 | 13.69070 | 100.76005 | 13 ft | 10 kts | 104° |
| 2026-04-22 15:24 | 13.69024 | 100.76061 | 13 ft | 12 kts | 168° |
| 2026-04-22 15:24 | 13.68975 | 100.76053 | 14 ft | 0 kts | 195° |
| 2026-04-22 15:25 | 13.68973 | 100.76053 | 14 ft | 1 kts | 195° |
| 2026-04-22 15:25 | 13.68951 | 100.76047 | 14 ft | 11 kts | 195° |
| 2026-04-22 15:25 | 13.68634 | 100.75964 | 16 ft | 81 kts | 194° |
| 2026-04-22 15:25 | 13.67900 | 100.75770 | 11 ft | 134 kts | 194° |
| 2026-04-22 15:26 | 13.66901 | 100.75509 | 251 ft | 154 kts | 193° |
| 2026-04-22 15:26 | 13.65859 | 100.75244 | 831 ft | 156 kts | 190° |
| 2026-04-22 15:26 | 13.64781 | 100.75195 | 1445 ft | 158 kts | 180° |
| 2026-04-22 15:26 | 13.63621 | 100.75202 | 1734 ft | 178 kts | 180° |
| 2026-04-22 15:27 | 13.62307 | 100.75205 | 1936 ft | 200 kts | 180° |
| 2026-04-22 15:27 | 13.60855 | 100.75208 | 2238 ft | 216 kts | 179° |
| 2026-04-22 15:27 | 13.59299 | 100.75414 | 2650 ft | 237 kts | 171° |
| 2026-04-22 15:27 | 13.57628 | 100.75836 | 3159 ft | 255 kts | 165° |
| 2026-04-22 15:28 | 13.55908 | 100.76376 | 3885 ft | 262 kts | 163° |
| 2026-04-22 15:28 | 13.54178 | 100.76940 | 4691 ft | 267 kts | 162° |
| 2026-04-22 15:28 | 13.52383 | 100.77514 | 5430 ft | 273 kts | 162° |
| 2026-04-22 15:28 | 13.50544 | 100.78080 | 6209 ft | 279 kts | 164° |
| 2026-04-22 15:29 | 13.48609 | 100.78365 | 6899 ft | 285 kts | 180° |
| 2026-04-22 15:29 | 13.46627 | 100.78102 | 7622 ft | 290 kts | 196° |
| 2026-04-22 15:29 | 13.44824 | 100.77170 | 8341 ft | 295 kts | 219° |
| 2026-04-22 15:30 | 13.43005 | 100.73526 | 9776 ft | 299 kts | 270° |
| 2026-04-22 15:30 | 13.43292 | 100.71394 | 10218 ft | 311 kts | 285° |
| 2026-04-22 15:30 | 13.43836 | 100.69162 | 10371 ft | 334 kts | 285° |
| 2026-04-22 15:30 | 13.44440 | 100.66807 | 10727 ft | 346 kts | 286° |
| 2026-04-22 15:31 | 13.45064 | 100.64397 | 11281 ft | 351 kts | 286° |
| 2026-04-22 15:31 | 13.45712 | 100.61963 | 11870 ft | 355 kts | 290° |
| 2026-04-22 15:31 | 13.46876 | 100.59733 | 12434 ft | 357 kts | 310° |
| 2026-04-22 15:31 | 13.48746 | 100.58058 | 12983 ft | 359 kts | 331° |
| 2026-04-22 15:32 | 13.51087 | 100.57178 | 13532 ft | 361 kts | 352° |
| 2026-04-22 15:32 | 13.53567 | 100.57091 | 13994 ft | 364 kts | 2° |
| 2026-04-22 15:32 | 13.56111 | 100.57156 | 14495 ft | 367 kts | 2° |
| 2026-04-22 15:32 | 13.58673 | 100.57232 | 14999 ft | 370 kts | 2° |
| 2026-04-22 15:33 | 13.61258 | 100.57310 | 15515 ft | 372 kts | 2° |
| 2026-04-22 15:33 | 13.63857 | 100.57384 | 16043 ft | 375 kts | 2° |
| 2026-04-22 15:33 | 13.66474 | 100.57456 | 16526 ft | 378 kts | 2° |
| 2026-04-22 15:33 | 13.69115 | 100.57528 | 17008 ft | 381 kts | 2° |
| 2026-04-22 15:34 | 13.71587 | 100.57596 | 17451 ft | 384 kts | 2° |
| 2026-04-22 15:34 | 13.74267 | 100.57668 | 17941 ft | 387 kts | 2° |
| 2026-04-22 15:34 | 13.76922 | 100.57482 | 18357 ft | 391 kts | 350° |
| 2026-04-22 15:34 | 13.79519 | 100.56632 | 18759 ft | 394 kts | 335° |
| 2026-04-22 15:35 | 13.81888 | 100.55257 | 19182 ft | 397 kts | 329° |
| 2026-04-22 15:35 | 13.84254 | 100.53780 | 19612 ft | 399 kts | 329° |
| 2026-04-22 15:35 | 13.86626 | 100.52280 | 20034 ft | 402 kts | 329° |
| 2026-04-22 15:35 | 13.89010 | 100.50764 | 20455 ft | 404 kts | 329° |
| 2026-04-22 15:36 | 13.91411 | 100.49239 | 20863 ft | 407 kts | 329° |
| 2026-04-22 15:36 | 13.93866 | 100.47780 | 21259 ft | 409 kts | 336° |
| 2026-04-22 15:36 | 13.96486 | 100.46748 | 21647 ft | 410 kts | 345° |
| 2026-04-22 15:36 | 13.99224 | 100.45897 | 22037 ft | 412 kts | 343° |
| 2026-04-22 15:37 | 14.01973 | 100.45033 | 22448 ft | 414 kts | 343° |
| 2026-04-22 15:37 | 14.04736 | 100.44159 | 22835 ft | 417 kts | 343° |
| 2026-04-22 15:37 | 14.07515 | 100.43276 | 23219 ft | 419 kts | 343° |
| 2026-04-22 15:37 | 14.10308 | 100.42384 | 23557 ft | 421 kts | 343° |
| 2026-04-22 15:38 | 14.13109 | 100.41490 | 23898 ft | 423 kts | 343° |
| 2026-04-22 15:38 | 14.18754 | 100.39692 | 24526 ft | 427 kts | 343° |
| 2026-04-22 15:38 | 14.21598 | 100.38789 | 24834 ft | 429 kts | 343° |
| 2026-04-22 15:39 | 14.24421 | 100.37893 | 25150 ft | 431 kts | 343° |
| 2026-04-22 15:39 | 14.27289 | 100.36984 | 25477 ft | 433 kts | 343° |
| 2026-04-22 15:39 | 14.30175 | 100.36070 | 25794 ft | 435 kts | 343° |
| 2026-04-22 15:39 | 14.33068 | 100.35152 | 26120 ft | 436 kts | 343° |
| 2026-04-22 15:40 | 14.35979 | 100.34225 | 26419 ft | 438 kts | 343° |
| 2026-04-22 15:40 | 14.38891 | 100.33297 | 26728 ft | 440 kts | 343° |
| 2026-04-22 15:40 | 14.41827 | 100.32361 | 27009 ft | 442 kts | 343° |
| 2026-04-22 15:40 | 14.44773 | 100.31420 | 27326 ft | 444 kts | 342° |
| 2026-04-22 15:41 | 14.47656 | 100.30270 | 27609 ft | 446 kts | 334° |
| 2026-04-22 15:41 | 14.50409 | 100.28885 | 27934 ft | 447 kts | 334° |
| 2026-04-22 15:41 | 14.53210 | 100.27471 | 28239 ft | 449 kts | 334° |
| 2026-04-22 15:41 | 14.56022 | 100.26050 | 28557 ft | 452 kts | 334° |
| 2026-04-22 15:42 | 14.58852 | 100.24621 | 28867 ft | 454 kts | 334° |
| 2026-04-22 15:42 | 14.61699 | 100.23185 | 29175 ft | 456 kts | 334° |
| 2026-04-22 15:42 | 14.64555 | 100.21746 | 29479 ft | 458 kts | 335° |
| 2026-04-22 15:42 | 14.67530 | 100.20541 | 29757 ft | 461 kts | 342° |
| 2026-04-22 15:43 | 14.70585 | 100.19535 | 30068 ft | 461 kts | 342° |
| 2026-04-22 15:43 | 14.73592 | 100.18539 | 30483 ft | 459 kts | 341° |
| 2026-04-22 15:43 | 14.76625 | 100.17531 | 30930 ft | 456 kts | 342° |
| 2026-04-22 15:43 | 14.79645 | 100.16524 | 31275 ft | 457 kts | 341° |
| 2026-04-22 15:44 | 14.82665 | 100.15514 | 31647 ft | 456 kts | 341° |
| 2026-04-22 15:44 | 14.85679 | 100.14508 | 32000 ft | 456 kts | 341° |
| 2026-04-22 15:44 | 14.88709 | 100.13497 | 32382 ft | 456 kts | 341° |
| 2026-04-22 15:44 | 14.91721 | 100.12491 | 32769 ft | 455 kts | 341° |
| 2026-04-22 15:45 | 14.94737 | 100.11484 | 33167 ft | 455 kts | 341° |
| 2026-04-22 15:45 | 14.97706 | 100.10495 | 33558 ft | 454 kts | 341° |
| 2026-04-22 15:45 | 15.00718 | 100.09494 | 33921 ft | 454 kts | 342° |
| 2026-04-22 15:45 | 15.03725 | 100.08496 | 34257 ft | 453 kts | 342° |
| 2026-04-22 15:46 | 15.06725 | 100.07499 | 34615 ft | 452 kts | 341° |
| 2026-04-22 15:46 | 15.09719 | 100.06502 | 34767 ft | 452 kts | 341° |
| 2026-04-22 15:46 | 15.15684 | 100.04510 | 34807 ft | 450 kts | 341° |
| 2026-04-22 15:47 | 15.21638 | 100.02523 | 34799 ft | 449 kts | 341° |
| 2026-04-22 15:47 | 15.27572 | 100.00547 | 34803 ft | 452 kts | 341° |
| 2026-04-22 15:48 | 15.33564 | 99.98544 | 34796 ft | 453 kts | 341° |
| 2026-04-22 15:48 | 15.39554 | 99.96540 | 34809 ft | 453 kts | 341° |
| 2026-04-22 15:49 | 15.45556 | 99.94538 | 34800 ft | 453 kts | 341° |
| 2026-04-22 15:49 | 15.51517 | 99.92542 | 34794 ft | 453 kts | 341° |
| 2026-04-22 15:50 | 15.57513 | 99.90522 | 34799 ft | 453 kts | 341° |
| 2026-04-22 15:50 | 15.63511 | 99.88513 | 34797 ft | 453 kts | 341° |
| 2026-04-22 15:51 | 15.69518 | 99.86501 | 34799 ft | 453 kts | 340° |
| 2026-04-22 15:51 | 15.75485 | 99.84503 | 34795 ft | 453 kts | 340° |
| 2026-04-22 15:52 | 15.81480 | 99.82489 | 34799 ft | 453 kts | 340° |
| 2026-04-22 15:52 | 15.87477 | 99.80474 | 34801 ft | 453 kts | 340° |
| 2026-04-22 15:53 | 15.93474 | 99.78457 | 34794 ft | 453 kts | 340° |
| 2026-04-22 15:53 | 15.99467 | 99.76445 | 34791 ft | 453 kts | 340° |
| 2026-04-22 15:54 | 16.05430 | 99.74442 | 34788 ft | 453 kts | 340° |
| 2026-04-22 15:54 | 16.11426 | 99.72417 | 34796 ft | 453 kts | 340° |
| 2026-04-22 15:55 | 16.17424 | 99.70396 | 34791 ft | 453 kts | 340° |
| 2026-04-22 15:55 | 16.23430 | 99.68374 | 34791 ft | 453 kts | 340° |
| 2026-04-22 15:56 | 16.29394 | 99.66369 | 34795 ft | 454 kts | 340° |
| 2026-04-22 15:56 | 16.35395 | 99.64348 | 34789 ft | 453 kts | 340° |
| 2026-04-22 15:57 | 16.41391 | 99.62310 | 34793 ft | 453 kts | 340° |
| 2026-04-22 15:57 | 16.47398 | 99.60281 | 34793 ft | 454 kts | 340° |
| 2026-04-22 15:58 | 16.53409 | 99.58256 | 34793 ft | 454 kts | 339° |
| 2026-04-22 15:58 | 16.59383 | 99.56233 | 34795 ft | 455 kts | 339° |
| 2026-04-22 15:59 | 16.65398 | 99.54196 | 34790 ft | 455 kts | 339° |
| 2026-04-22 15:59 | 16.71416 | 99.52155 | 34792 ft | 455 kts | 339° |
| 2026-04-22 16:00 | 16.77433 | 99.50120 | 34797 ft | 455 kts | 339° |
| 2026-04-22 16:00 | 16.83456 | 99.48083 | 34808 ft | 455 kts | 339° |
| 2026-04-22 16:01 | 16.89435 | 99.46059 | 34794 ft | 455 kts | 339° |
| 2026-04-22 16:01 | 16.95459 | 99.44018 | 34796 ft | 456 kts | 339° |
| 2026-04-22 16:02 | 17.01489 | 99.41967 | 34792 ft | 456 kts | 339° |
| 2026-04-22 16:02 | 17.07359 | 99.39971 | 34795 ft | 456 kts | 339° |
| 2026-04-22 16:03 | 17.13349 | 99.37930 | 34805 ft | 456 kts | 339° |
| 2026-04-22 16:03 | 17.19249 | 99.35919 | 34812 ft | 455 kts | 339° |
| 2026-04-22 16:04 | 17.25255 | 99.33877 | 34805 ft | 453 kts | 339° |
| 2026-04-22 16:04 | 17.31262 | 99.31832 | 34805 ft | 453 kts | 339° |
| 2026-04-22 16:05 | 17.37223 | 99.29801 | 34806 ft | 454 kts | 339° |
| 2026-04-22 16:05 | 17.43232 | 99.27750 | 34808 ft | 454 kts | 339° |
| 2026-04-22 16:06 | 17.49278 | 99.25860 | 34809 ft | 455 kts | 342° |
| 2026-04-22 16:06 | 17.55451 | 99.24357 | 34151 ft | 459 kts | 344° |
| 2026-04-22 16:07 | 17.58605 | 99.23632 | 33149 ft | 468 kts | 344° |
| 2026-04-22 16:07 | 17.61765 | 99.22898 | 32647 ft | 463 kts | 344° |
| 2026-04-22 16:07 | 17.64894 | 99.22153 | 32091 ft | 459 kts | 343° |
| 2026-04-22 16:07 | 17.67951 | 99.21401 | 31546 ft | 456 kts | 343° |
| 2026-04-22 16:08 | 17.71029 | 99.20629 | 30990 ft | 453 kts | 343° |
| 2026-04-22 16:08 | 17.74076 | 99.19857 | 30441 ft | 450 kts | 343° |
| 2026-04-22 16:08 | 17.77107 | 99.19087 | 29890 ft | 447 kts | 344° |
| 2026-04-22 16:08 | 17.80118 | 99.18326 | 29285 ft | 443 kts | 344° |
| 2026-04-22 16:09 | 17.83101 | 99.17577 | 28742 ft | 438 kts | 344° |
| 2026-04-22 16:09 | 17.86052 | 99.16837 | 28212 ft | 434 kts | 344° |
| 2026-04-22 16:09 | 17.88970 | 99.16103 | 27692 ft | 429 kts | 343° |
| 2026-04-22 16:09 | 17.91859 | 99.15375 | 27178 ft | 425 kts | 343° |
| 2026-04-22 16:10 | 17.94687 | 99.14663 | 26670 ft | 421 kts | 343° |
| 2026-04-22 16:10 | 17.97518 | 99.13949 | 26201 ft | 417 kts | 343° |
| 2026-04-22 16:10 | 17.99425 | 99.13468 | 25872 ft | 415 kts | 343° |
| 2026-04-22 16:10 | 18.03117 | 99.12536 | 25265 ft | 410 kts | 343° |
| 2026-04-22 16:11 | 18.05883 | 99.11839 | 24814 ft | 407 kts | 343° |
| 2026-04-22 16:11 | 18.08626 | 99.11148 | 24368 ft | 405 kts | 343° |
| 2026-04-22 16:11 | 18.11361 | 99.10461 | 23926 ft | 403 kts | 345° |
| 2026-04-22 16:11 | 18.14153 | 99.10106 | 23465 ft | 406 kts | 356° |
| 2026-04-22 16:12 | 18.16968 | 99.10355 | 22934 ft | 408 kts | 9° |
| 2026-04-22 16:12 | 18.19688 | 99.11017 | 22460 ft | 406 kts | 11° |
| 2026-04-22 16:12 | 18.22428 | 99.11696 | 21972 ft | 403 kts | 11° |
| 2026-04-22 16:12 | 18.25150 | 99.12367 | 21470 ft | 401 kts | 11° |
| 2026-04-22 16:13 | 18.27859 | 99.13036 | 20965 ft | 399 kts | 11° |
| 2026-04-22 16:13 | 18.30557 | 99.13702 | 20459 ft | 397 kts | 11° |
| 2026-04-22 16:13 | 18.33241 | 99.14362 | 19965 ft | 395 kts | 11° |
| 2026-04-22 16:13 | 18.35913 | 99.15019 | 19423 ft | 394 kts | 11° |
| 2026-04-22 16:14 | 18.38574 | 99.15675 | 18946 ft | 392 kts | 11° |
| 2026-04-22 16:14 | 18.41200 | 99.16322 | 18603 ft | 385 kts | 11° |
| 2026-04-22 16:14 | 18.43771 | 99.16955 | 18098 ft | 383 kts | 11° |
| 2026-04-22 16:14 | 18.46362 | 99.17592 | 17555 ft | 381 kts | 11° |
| 2026-04-22 16:15 | 18.48928 | 99.18225 | 17058 ft | 377 kts | 11° |
| 2026-04-22 16:15 | 18.51472 | 99.18855 | 16566 ft | 374 kts | 11° |
| 2026-04-22 16:15 | 18.53986 | 99.19479 | 16283 ft | 365 kts | 11° |
| 2026-04-22 16:15 | 18.56407 | 99.20078 | 16152 ft | 347 kts | 11° |
| 2026-04-22 16:16 | 18.58680 | 99.20632 | 16021 ft | 324 kts | 8° |
| 2026-04-22 16:16 | 18.60847 | 99.20834 | 15884 ft | 303 kts | 358° |
| 2026-04-22 16:16 | 18.62889 | 99.20839 | 15535 ft | 295 kts | 358° |
| 2026-04-22 16:16 | 18.64925 | 99.20844 | 15077 ft | 291 kts | 358° |
| 2026-04-22 16:17 | 18.66939 | 99.20851 | 14594 ft | 288 kts | 359° |
| 2026-04-22 16:17 | 18.68939 | 99.20859 | 14094 ft | 286 kts | 358° |
| 2026-04-22 16:17 | 18.70921 | 99.20866 | 13640 ft | 284 kts | 358° |
| 2026-04-22 16:17 | 18.72890 | 99.20872 | 13122 ft | 281 kts | 359° |
| 2026-04-22 16:18 | 18.74806 | 99.20880 | 12627 ft | 279 kts | 358° |
| 2026-04-22 16:18 | 18.76715 | 99.20886 | 12135 ft | 277 kts | 359° |
| 2026-04-22 16:18 | 18.78656 | 99.20891 | 11652 ft | 274 kts | 359° |
| 2026-04-22 16:18 | 18.80529 | 99.20896 | 11196 ft | 272 kts | 359° |
| 2026-04-22 16:19 | 18.82411 | 99.20904 | 10737 ft | 269 kts | 359° |
| 2026-04-22 16:19 | 18.84274 | 99.20912 | 10319 ft | 266 kts | 359° |
| 2026-04-22 16:19 | 18.86101 | 99.20919 | 10094 ft | 262 kts | 358° |
| 2026-04-22 16:19 | 18.87912 | 99.20926 | 9887 ft | 260 kts | 359° |
| 2026-04-22 16:20 | 18.89723 | 99.20936 | 9671 ft | 260 kts | 358° |
| 2026-04-22 16:20 | 18.91534 | 99.20945 | 9424 ft | 260 kts | 359° |
| 2026-04-22 16:20 | 18.93337 | 99.20953 | 9220 ft | 260 kts | 358° |
| 2026-04-22 16:20 | 18.95122 | 99.20959 | 9003 ft | 259 kts | 358° |
| 2026-04-22 16:21 | 18.96920 | 99.20965 | 8913 ft | 259 kts | 358° |
| 2026-04-22 16:21 | 18.98729 | 99.20971 | 8859 ft | 260 kts | 359° |
| 2026-04-22 16:21 | 19.00539 | 99.20979 | 8753 ft | 260 kts | 359° |
| 2026-04-22 16:21 | 19.02336 | 99.20907 | 8627 ft | 257 kts | 346° |
| 2026-04-22 16:22 | 19.04845 | 99.18572 | 8385 ft | 249 kts | 285° |
| 2026-04-22 16:22 | 19.05015 | 99.16777 | 8376 ft | 248 kts | 269° |
| 2026-04-22 16:22 | 19.05015 | 99.14950 | 8401 ft | 245 kts | 269° |
| 2026-04-22 16:23 | 19.05022 | 99.11444 | 8391 ft | 240 kts | 269° |
| 2026-04-22 16:23 | 19.05028 | 99.09661 | 8045 ft | 243 kts | 269° |
| 2026-04-22 16:23 | 19.05032 | 99.07877 | 7798 ft | 241 kts | 272° |
| 2026-04-22 16:24 | 19.05036 | 99.06125 | 7563 ft | 239 kts | 271° |
| 2026-04-22 16:24 | 19.05043 | 99.02643 | 7003 ft | 237 kts | 272° |
| 2026-04-22 16:24 | 19.05048 | 99.00881 | 6617 ft | 240 kts | 271° |
| 2026-04-22 16:25 | 19.05048 | 98.99169 | 6311 ft | 232 kts | 269° |
| 2026-04-22 16:25 | 19.03352 | 98.96512 | 5708 ft | 235 kts | 201° |
| 2026-04-22 16:25 | 19.01749 | 98.96341 | 5419 ft | 230 kts | 182° |
| 2026-04-22 16:26 | 19.00173 | 98.96354 | 5150 ft | 224 kts | 183° |
| 2026-04-22 16:26 | 18.98627 | 98.96352 | 4877 ft | 220 kts | 183° |
| 2026-04-22 16:26 | 18.97122 | 98.96346 | 4619 ft | 213 kts | 183° |
| 2026-04-22 16:26 | 18.95659 | 98.96342 | 4373 ft | 208 kts | 183° |
| 2026-04-22 16:27 | 18.94250 | 98.96338 | 4117 ft | 196 kts | 183° |
| 2026-04-22 16:27 | 18.92939 | 98.96336 | 3875 ft | 187 kts | 183° |
| 2026-04-22 16:27 | 18.91673 | 98.96334 | 3650 ft | 176 kts | 183° |
| 2026-04-22 16:27 | 18.90490 | 98.96331 | 3439 ft | 166 kts | 185° |
| 2026-04-22 16:28 | 18.89370 | 98.96327 | 3237 ft | 159 kts | 183° |
| 2026-04-22 16:28 | 18.88271 | 98.96324 | 3031 ft | 157 kts | 182° |
| 2026-04-22 16:28 | 18.87190 | 98.96319 | 2822 ft | 154 kts | 183° |
| 2026-04-22 16:28 | 18.86124 | 98.96315 | 2634 ft | 149 kts | 183° |
| 2026-04-22 16:29 | 18.85102 | 98.96312 | 2426 ft | 145 kts | 183° |
| 2026-04-22 16:29 | 18.84109 | 98.96307 | 2241 ft | 144 kts | 183° |
| 2026-04-22 16:29 | 18.83104 | 98.96306 | 2054 ft | 143 kts | 182° |
| 2026-04-22 16:29 | 18.82121 | 98.96304 | 1868 ft | 143 kts | 181° |
| 2026-04-22 16:30 | 18.81449 | 98.96304 | 1741 ft | 143 kts | 181° |
| 2026-04-22 16:30 | 18.80130 | 98.96307 | 1480 ft | 143 kts | 180° |
| 2026-04-22 16:30 | 18.79150 | 98.96307 | 1287 ft | 142 kts | 180° |
| 2026-04-22 16:30 | 18.78165 | 98.96294 | 1086 ft | 141 kts | 180° |
| 2026-04-22 16:31 | 18.77258 | 98.96289 | 1032 ft | 105 kts | 180° |
| 2026-04-22 16:31 | 18.76776 | 98.96288 | 1032 ft | 52 kts | 180° |
| 2026-04-22 16:31 | 18.76442 | 98.96288 | 1032 ft | 42 kts | 180° |
| 2026-04-22 16:31 | 18.76229 | 98.96288 | 1032 ft | 13 kts | 179° |
| 2026-04-22 16:32 | 18.76188 | 98.96366 | 1032 ft | 15 kts | 90° |
| 2026-04-22 16:32 | 18.76188 | 98.96480 | 1032 ft | 17 kts | 90° |
| 2026-04-22 16:32 | 18.76193 | 98.96609 | 1032 ft | 18 kts | 68° |
| 2026-04-22 16:32 | 18.76307 | 98.96633 | 1032 ft | 19 kts | 356° |
| 2026-04-22 16:33 | 18.76445 | 98.96633 | 1032 ft | 21 kts | 360° |
| 2026-04-22 16:33 | 18.76597 | 98.96642 | 1032 ft | 22 kts | 23° |
| 2026-04-22 16:33 | 18.76724 | 98.96647 | 1032 ft | 19 kts | 2° |
| 2026-04-22 16:33 | 18.76824 | 98.96648 | 1032 ft | 11 kts | 7° |
| 2026-04-22 16:34 | 18.76843 | 98.96704 | 1032 ft | 8 kts | 90° |
| 2026-04-22 16:34 | 18.76843 | 98.96732 | 1032 ft | 1 kts | 90° |
| 2026-04-22 16:34 | 18.76843 | 98.96734 | 1032 ft | 0 kts | 90° |